createdAt,value
2018-09-17T00:00:37.982Z,12.54
2018-09-17T00:03:11.412Z,12.48
2018-09-17T00:05:44.767Z,12.44
2018-09-17T00:08:18.144Z,12.45
2018-09-17T00:10:51.523Z,12.43
2018-09-17T00:13:24.893Z,12.38
2018-09-17T00:15:58.283Z,12.37
2018-09-17T00:18:31.679Z,12.36
2018-09-17T00:21:05.080Z,12.32
2018-09-17T00:23:38.500Z,12.28
2018-09-17T00:26:11.871Z,12.20
2018-09-17T00:28:45.243Z,12.10
2018-09-17T00:31:18.682Z,12.13
2018-09-17T00:33:52.069Z,12.08
2018-09-17T00:36:25.442Z,12.07
2018-09-17T00:38:58.895Z,12.02
2018-09-17T00:41:32.261Z,12.00
2018-09-17T00:44:05.979Z,12.04
2018-09-17T00:46:39.334Z,12.06
2018-09-17T00:49:12.824Z,12.04
2018-09-17T00:51:46.227Z,12.01
2018-09-17T00:54:20.737Z,11.92
2018-09-17T00:56:54.109Z,11.91
2018-09-17T00:59:27.533Z,11.93
2018-09-17T01:02:07.603Z,11.90
2018-09-17T01:04:41.036Z,11.91
2018-09-17T01:07:14.411Z,11.89
2018-09-17T01:09:47.803Z,11.84
2018-09-17T01:12:21.284Z,11.81
2018-09-17T01:14:54.659Z,11.81
2018-09-17T01:17:28.002Z,11.81
2018-09-17T01:20:01.425Z,11.73
2018-09-17T01:22:34.808Z,11.66
2018-09-17T01:25:08.198Z,11.64
2018-09-17T01:27:41.556Z,11.64
2018-09-17T01:30:15.003Z,11.64
2018-09-17T01:32:48.356Z,11.61
2018-09-17T01:35:21.755Z,11.57
2018-09-17T01:37:55.204Z,11.56
2018-09-17T01:40:28.630Z,11.55
2018-09-17T01:43:01.995Z,11.50
2018-09-17T01:45:35.487Z,11.47
2018-09-17T01:48:08.878Z,11.44
2018-09-17T01:50:42.257Z,11.43
2018-09-17T01:53:15.634Z,11.38
2018-09-17T01:55:49.020Z,11.40
2018-09-17T01:58:22.383Z,11.35
2018-09-17T02:00:55.775Z,11.30
2018-09-17T02:03:29.136Z,11.24
2018-09-17T02:06:02.528Z,11.21
2018-09-17T02:08:35.971Z,11.17
2018-09-17T02:11:09.337Z,11.10
2018-09-17T02:13:42.739Z,11.06
2018-09-17T02:16:16.353Z,11.07
2018-09-17T02:18:49.838Z,11.07
2018-09-17T02:21:23.253Z,11.06
2018-09-17T02:23:56.607Z,11.06
2018-09-17T02:26:30.021Z,11.06
2018-09-17T02:29:03.376Z,11.05
2018-09-17T02:31:36.778Z,11.05
2018-09-17T02:34:10.161Z,11.06
2018-09-17T02:36:43.655Z,11.06
2018-09-17T02:39:17.016Z,11.01
2018-09-17T02:41:50.677Z,10.97
2018-09-17T02:44:24.050Z,10.93
2018-09-17T02:46:57.439Z,10.90
2018-09-17T02:49:30.818Z,10.92
2018-09-17T02:52:04.254Z,10.92
2018-09-17T02:54:37.619Z,10.86
2018-09-17T02:57:10.988Z,10.86
2018-09-17T02:59:44.360Z,10.84
2018-09-17T03:02:17.748Z,10.85
2018-09-17T03:04:51.122Z,10.89
2018-09-17T03:07:24.616Z,10.89
2018-09-17T03:09:58.031Z,10.90
2018-09-17T03:12:31.443Z,10.87
2018-09-17T03:15:16.163Z,10.86
2018-09-17T03:17:49.560Z,10.83
2018-09-17T03:20:22.937Z,10.79
2018-09-17T03:22:56.315Z,10.77
2018-09-17T03:25:29.709Z,10.79
2018-09-17T03:28:03.145Z,10.75
2018-09-17T03:30:36.529Z,10.70
2018-09-17T03:33:09.945Z,10.67
2018-09-17T03:35:43.324Z,10.68
2018-09-17T03:38:48.687Z,10.69
2018-09-17T03:41:22.078Z,10.73
2018-09-17T03:43:55.516Z,10.70
2018-09-17T03:46:28.934Z,10.67
2018-09-17T03:49:02.298Z,10.63
2018-09-17T03:51:35.668Z,10.57
2018-09-17T03:54:09.064Z,10.54
2018-09-17T03:56:42.453Z,10.55
2018-09-17T03:59:15.860Z,10.53
2018-09-17T04:01:50.151Z,10.54
2018-09-17T04:04:23.532Z,10.42
2018-09-17T04:06:56.947Z,10.37
2018-09-17T04:09:30.434Z,10.28
2018-09-17T04:12:03.971Z,10.22
2018-09-17T04:14:37.341Z,10.36
2018-09-17T04:17:10.843Z,10.42
2018-09-17T04:19:44.210Z,10.45
2018-09-17T04:22:17.615Z,10.51
2018-09-17T04:24:51.022Z,10.45
2018-09-17T04:27:24.413Z,10.43
2018-09-17T04:29:57.788Z,10.45
2018-09-17T04:32:31.261Z,10.42
2018-09-17T04:35:05.783Z,10.33
2018-09-17T04:37:39.942Z,10.24
2018-09-17T04:40:13.392Z,10.23
2018-09-17T04:42:46.800Z,10.26
2018-09-17T04:45:20.198Z,10.29
2018-09-17T04:47:53.579Z,10.27
2018-09-17T04:50:26.939Z,10.27
2018-09-17T04:53:00.655Z,10.28
2018-09-17T04:55:34.116Z,10.32
2018-09-17T04:58:07.513Z,10.33
2018-09-17T05:00:40.899Z,10.33
2018-09-17T05:03:14.328Z,10.37
2018-09-17T05:05:47.683Z,10.39
2018-09-17T05:08:21.149Z,10.39
2018-09-17T05:10:54.530Z,10.42
2018-09-17T05:13:28.027Z,10.45
2018-09-17T05:16:01.298Z,10.45
2018-09-17T05:18:34.691Z,10.50
2018-09-17T05:21:08.125Z,10.53
2018-09-17T05:23:41.521Z,10.57
2018-09-17T05:26:14.877Z,10.63
2018-09-17T05:28:48.259Z,10.73
2018-09-17T05:31:21.659Z,10.78
2018-09-17T05:33:55.018Z,10.82
2018-09-17T05:36:28.538Z,10.88
2018-09-17T05:39:01.923Z,10.92
2018-09-17T05:41:35.292Z,11.00
2018-09-17T05:44:08.671Z,11.03
2018-09-17T05:46:42.023Z,11.06
2018-09-17T05:49:15.395Z,11.09
2018-09-17T05:51:48.850Z,11.15
2018-09-17T05:54:22.246Z,11.22
2018-09-17T05:56:55.618Z,11.21
2018-09-17T05:59:29.050Z,11.25
2018-09-17T06:02:02.383Z,11.28
2018-09-17T06:04:35.786Z,11.33
2018-09-17T06:07:09.251Z,11.40
2018-09-17T06:09:42.605Z,11.45
2018-09-17T06:12:15.966Z,11.52
2018-09-17T06:14:49.359Z,11.57
2018-09-17T06:17:22.766Z,11.65
2018-09-17T06:19:56.175Z,11.78
2018-09-17T06:22:29.534Z,11.92
2018-09-17T06:25:03.328Z,12.05
2018-09-17T06:27:36.737Z,12.17
2018-09-17T06:30:10.122Z,12.29
2018-09-17T06:32:43.567Z,12.47
2018-09-17T06:35:16.917Z,12.65
2018-09-17T06:37:50.319Z,12.78
2018-09-17T06:40:23.654Z,12.98
2018-09-17T06:42:57.090Z,13.17
2018-09-17T06:45:30.466Z,13.33
2018-09-17T06:48:03.906Z,13.40
2018-09-17T06:50:37.276Z,13.52
2018-09-17T06:53:10.598Z,13.63
2018-09-17T06:55:43.951Z,13.74
2018-09-17T06:58:17.274Z,13.81
2018-09-17T07:00:50.630Z,13.90
2018-09-17T07:03:24.022Z,14.00
2018-09-17T07:05:58.520Z,14.15
2018-09-17T07:08:31.855Z,14.28
2018-09-17T07:11:05.337Z,14.42
2018-09-17T07:13:38.671Z,14.53
2018-09-17T07:16:12.120Z,14.69
2018-09-17T07:18:45.477Z,14.89
2018-09-17T07:21:18.834Z,15.05
2018-09-17T07:23:52.186Z,15.24
2018-09-17T07:26:25.716Z,15.44
2018-09-17T07:28:59.452Z,15.56
2018-09-17T07:31:32.876Z,15.82
2018-09-17T07:34:06.358Z,15.96
2018-09-17T07:36:39.759Z,16.13
2018-09-17T07:39:13.117Z,16.35
2018-09-17T07:41:46.571Z,16.61
2018-09-17T07:44:19.962Z,16.96
2018-09-17T07:46:53.404Z,17.35
2018-09-17T07:49:26.763Z,17.80
2018-09-17T07:52:00.115Z,18.19
2018-09-17T07:54:33.478Z,18.46
2018-09-17T07:57:07.014Z,18.76
2018-09-17T07:59:40.471Z,18.84
2018-09-17T08:02:14.177Z,19.00
2018-09-17T08:04:47.541Z,19.07
2018-09-17T08:07:20.926Z,19.12
2018-09-17T08:09:54.354Z,19.29
2018-09-17T08:12:27.779Z,19.47
2018-09-17T08:15:01.132Z,19.69
2018-09-17T08:17:34.481Z,19.90
2018-09-17T08:20:08.145Z,20.09
2018-09-17T08:22:41.824Z,20.11
2018-09-17T08:25:15.177Z,20.29
2018-09-17T08:27:48.498Z,20.55
2018-09-17T08:30:21.846Z,20.77
2018-09-17T08:32:55.170Z,21.07
2018-09-17T08:35:28.529Z,21.23
2018-09-17T08:38:01.864Z,21.38
2018-09-17T08:40:35.222Z,21.44
2018-09-17T08:43:08.541Z,21.53
2018-09-17T08:45:41.928Z,21.80
2018-09-17T08:48:15.205Z,21.97
2018-09-17T08:50:48.567Z,22.30
2018-09-17T08:53:21.982Z,22.53
2018-09-17T08:56:04.578Z,22.67
2018-09-17T08:58:43.349Z,22.83
2018-09-17T09:03:59.800Z,23.65
2018-09-17T09:06:38.394Z,24.41
2018-09-17T09:09:12.864Z,25.21
2018-09-17T09:11:52.147Z,25.65
2018-09-17T09:14:30.788Z,25.64
2018-09-17T09:17:04.170Z,25.41
2018-09-17T09:19:37.582Z,25.09
2018-09-17T09:22:10.944Z,24.87
2018-09-17T09:24:44.273Z,24.90
2018-09-17T09:27:17.615Z,24.91
2018-09-17T09:29:50.954Z,24.90
2018-09-17T09:32:24.358Z,25.02
2018-09-17T09:34:57.689Z,25.22
2018-09-17T09:37:31.157Z,25.31
2018-09-17T09:40:04.580Z,25.11
2018-09-17T09:42:37.951Z,25.06
2018-09-17T09:45:11.282Z,25.01
2018-09-17T09:47:45.270Z,24.98
2018-09-17T09:50:18.595Z,25.05
2018-09-17T09:52:52.017Z,25.09
2018-09-17T09:55:25.334Z,25.11
2018-09-17T09:57:58.690Z,25.04
2018-09-17T10:01:40.991Z,25.00
2018-09-17T10:04:19.778Z,25.21
2018-09-17T10:06:53.534Z,25.16
2018-09-17T10:09:32.285Z,25.37
2018-09-17T10:12:10.805Z,25.76
2018-09-17T10:14:49.440Z,25.80
2018-09-17T10:17:27.913Z,25.68
2018-09-17T10:20:01.255Z,25.76
2018-09-17T10:22:34.671Z,25.86
2018-09-17T10:25:08.002Z,25.99
2018-09-17T10:27:41.368Z,25.84
2018-09-17T10:30:14.741Z,25.93
2018-09-17T10:32:48.093Z,25.90
2018-09-17T10:35:21.425Z,25.83
2018-09-17T10:37:54.793Z,25.83
2018-09-17T10:40:28.120Z,25.74
2018-09-17T10:43:01.484Z,25.68
2018-09-17T10:45:34.870Z,25.71
2018-09-17T10:48:08.238Z,25.75
2018-09-17T10:50:41.571Z,25.65
2018-09-17T10:53:14.917Z,25.67
2018-09-17T10:55:48.242Z,25.64
2018-09-17T10:58:21.608Z,25.69
2018-09-17T11:00:54.941Z,25.78
2018-09-17T11:03:28.282Z,25.82
2018-09-17T11:06:01.623Z,25.93
2018-09-17T11:08:34.959Z,25.94
2018-09-17T11:11:08.362Z,25.92
2018-09-17T11:13:41.720Z,25.97
2018-09-17T11:16:15.054Z,26.11
2018-09-17T11:18:48.409Z,26.10
2018-09-17T11:21:21.748Z,26.26
2018-09-17T11:23:55.105Z,26.22
2018-09-17T11:26:28.421Z,26.33
2018-09-17T11:29:01.778Z,26.23
2018-09-17T11:31:35.157Z,26.20
2018-09-17T11:34:08.496Z,26.17
2018-09-17T11:36:41.831Z,26.20
2018-09-17T11:39:15.173Z,26.27
2018-09-17T11:41:48.514Z,26.52
2018-09-17T11:44:21.868Z,26.62
2018-09-17T11:46:55.188Z,26.71
2018-09-17T11:49:28.530Z,26.71
2018-09-17T11:52:01.872Z,26.65
2018-09-17T11:54:35.247Z,26.86
2018-09-17T11:57:08.572Z,26.78
2018-09-17T11:59:41.937Z,26.85
2018-09-17T12:02:20.512Z,26.85
2018-09-17T12:04:56.856Z,27.01
2018-09-17T12:07:39.695Z,27.05
2018-09-17T12:10:13.073Z,27.16
2018-09-17T12:12:46.404Z,27.31
2018-09-17T12:15:19.782Z,27.18
2018-09-17T12:17:53.133Z,27.19
2018-09-17T12:20:26.494Z,27.10
2018-09-17T12:22:59.829Z,27.29
2018-09-17T12:25:33.234Z,27.45
2018-09-17T12:28:06.924Z,27.76
2018-09-17T12:30:40.289Z,27.68
2018-09-17T12:33:13.626Z,27.58
2018-09-17T12:35:46.989Z,27.59
2018-09-17T12:38:20.793Z,27.78
2018-09-17T12:40:54.160Z,27.65
2018-09-17T12:43:27.494Z,27.55
2018-09-17T12:46:00.901Z,27.38
2018-09-17T12:48:34.214Z,27.18
2018-09-17T12:51:07.579Z,27.05
2018-09-17T12:53:40.959Z,26.99
2018-09-17T12:56:14.338Z,26.91
2018-09-17T12:58:47.703Z,26.81
2018-09-17T13:01:21.050Z,26.73
2018-09-17T13:03:54.403Z,26.75
2018-09-17T13:06:27.754Z,26.81
2018-09-17T13:09:01.123Z,26.75
2018-09-17T13:11:34.500Z,26.80
2018-09-17T13:14:07.888Z,26.88
2018-09-17T13:16:41.263Z,26.83
2018-09-17T13:19:14.594Z,26.80
2018-09-17T13:21:47.965Z,26.93
2018-09-17T13:24:21.318Z,26.72
2018-09-17T13:26:54.707Z,26.78
2018-09-17T13:29:28.036Z,26.87
2018-09-17T13:32:01.451Z,26.94
2018-09-17T13:34:34.757Z,26.86
2018-09-17T13:37:08.165Z,26.89
2018-09-17T13:39:41.536Z,26.94
2018-09-17T13:42:14.925Z,26.87
2018-09-17T13:44:48.272Z,26.75
2018-09-17T13:47:21.658Z,26.69
2018-09-17T13:49:55.059Z,26.74
2018-09-17T13:52:28.460Z,26.81
2018-09-17T13:55:01.915Z,26.82
2018-09-17T13:57:35.326Z,26.75
2018-09-17T14:00:08.704Z,26.83
2018-09-17T14:02:42.164Z,26.77
2018-09-17T14:05:15.531Z,26.76
2018-09-17T14:07:48.883Z,26.84
2018-09-17T14:10:22.331Z,26.74
2018-09-17T14:12:55.641Z,26.75
2018-09-17T14:15:28.998Z,26.80
2018-09-17T14:18:02.355Z,26.86
2018-09-17T14:20:35.709Z,26.74
2018-09-17T14:23:09.333Z,26.73
2018-09-17T14:25:42.754Z,26.75
2018-09-17T14:28:16.199Z,26.71
2018-09-17T14:30:49.690Z,26.65
2018-09-17T14:33:28.413Z,26.73
2018-09-17T14:36:02.054Z,26.59
2018-09-17T14:38:35.645Z,26.61
2018-09-17T14:41:09.101Z,26.64
2018-09-17T14:43:42.478Z,26.62
2018-09-17T14:46:16.408Z,26.54
2018-09-17T14:48:51.234Z,26.48
2018-09-17T14:51:24.764Z,26.47
2018-09-17T14:54:00.892Z,26.44
2018-09-17T14:56:34.416Z,26.39
2018-09-17T14:59:07.789Z,26.36
2018-09-17T15:01:41.205Z,26.38
2018-09-17T15:04:14.674Z,26.37
2018-09-17T15:06:48.111Z,26.30
2018-09-17T15:09:21.511Z,26.27
2018-09-17T15:11:55.054Z,26.21
2018-09-17T15:14:28.475Z,26.14
2018-09-17T15:17:01.952Z,26.03
2018-09-17T15:19:35.287Z,25.91
2018-09-17T15:22:08.682Z,25.92
2018-09-17T15:24:42.031Z,25.75
2018-09-17T15:27:15.485Z,25.66
2018-09-17T15:29:48.861Z,25.70
2018-09-17T15:32:22.377Z,25.71
2018-09-17T15:34:55.750Z,25.68
2018-09-17T15:37:29.254Z,25.61
2018-09-17T15:40:02.658Z,25.54
2018-09-17T15:42:35.974Z,25.51
2018-09-17T15:45:09.298Z,25.46
2018-09-17T15:47:42.645Z,25.44
2018-09-17T15:50:16.046Z,25.42
2018-09-17T15:52:49.392Z,25.31
2018-09-17T15:55:22.834Z,25.32
2018-09-17T15:57:56.302Z,25.37
2018-09-17T16:00:29.606Z,25.30
2018-09-17T16:03:03.194Z,25.27
2018-09-17T16:05:36.660Z,25.27
2018-09-17T16:08:11.372Z,25.24
2018-09-17T16:10:56.350Z,25.20
2018-09-17T16:13:30.109Z,25.22
2018-09-17T16:16:03.485Z,25.19
2018-09-17T16:18:36.834Z,25.07
2018-09-17T16:21:10.217Z,25.03
2018-09-17T16:23:43.543Z,25.02
2018-09-17T16:26:17.383Z,25.00
2018-09-17T16:28:50.762Z,24.94
2018-09-17T16:31:24.210Z,24.86
2018-09-17T16:33:58.154Z,24.78
2018-09-17T16:36:31.489Z,24.65
2018-09-17T16:39:07.355Z,24.60
2018-09-17T16:41:40.688Z,24.55
2018-09-17T16:44:14.051Z,24.48
2018-09-17T16:46:47.474Z,24.42
2018-09-17T16:49:21.027Z,24.39
2018-09-17T16:51:54.363Z,24.33
2018-09-17T16:54:27.710Z,24.24
2018-09-17T16:57:01.114Z,24.14
2018-09-17T16:59:34.492Z,24.05
2018-09-17T17:02:07.821Z,23.97
2018-09-17T17:04:41.204Z,23.88
2018-09-17T17:07:14.563Z,23.80
2018-09-17T17:09:47.921Z,23.69
2018-09-17T17:12:21.504Z,23.58
2018-09-17T17:14:54.856Z,23.46
2018-09-17T17:17:28.177Z,23.34
2018-09-17T17:20:01.518Z,23.22
2018-09-17T17:22:35.724Z,23.08
2018-09-17T17:25:09.103Z,22.94
2018-09-17T17:27:42.642Z,22.76
2018-09-17T17:30:16.245Z,22.61
2018-09-17T17:32:50.097Z,22.54
2018-09-17T17:35:23.814Z,22.44
2018-09-17T17:37:57.685Z,22.35
2018-09-17T17:40:31.307Z,22.22
2018-09-17T17:43:04.981Z,22.10
2018-09-17T17:45:38.551Z,22.00
2018-09-17T17:48:11.882Z,21.88
2018-09-17T17:50:45.498Z,21.75
2018-09-17T17:53:19.227Z,21.61
2018-09-17T17:55:53.102Z,21.50
2018-09-17T17:58:26.724Z,21.40
2018-09-17T18:01:00.455Z,21.29
2018-09-17T18:03:34.022Z,21.18
2018-09-17T18:06:07.398Z,21.05
2018-09-17T18:08:41.146Z,20.93
2018-09-17T18:11:14.881Z,20.82
2018-09-17T18:13:49.133Z,20.68
2018-09-17T18:16:26.951Z,20.51
2018-09-17T18:19:01.888Z,20.32
2018-09-17T18:21:35.571Z,20.15
2018-09-17T18:24:09.121Z,20.06
2018-09-17T18:26:42.654Z,19.99
2018-09-17T18:29:16.320Z,19.88
2018-09-17T18:31:49.703Z,19.77
2018-09-17T18:34:23.237Z,19.65
2018-09-17T18:36:56.847Z,19.57
2018-09-17T18:39:30.817Z,19.48
2018-09-17T18:42:04.189Z,19.39
2018-09-17T18:44:38.101Z,19.34
2018-09-17T18:47:11.462Z,19.27
2018-09-17T18:49:45.230Z,19.23
2018-09-17T18:52:18.660Z,19.17
2018-09-17T18:54:52.347Z,19.06
2018-09-17T18:57:26.057Z,18.99
2018-09-17T18:59:59.452Z,18.87
2018-09-17T19:02:32.971Z,18.73
2018-09-17T19:05:06.463Z,18.65
2018-09-17T19:07:40.896Z,18.60
2018-09-17T19:10:14.348Z,18.55
2018-09-17T19:12:47.966Z,18.53
2018-09-17T19:15:26.711Z,18.49
2018-09-17T19:18:05.390Z,18.39
2018-09-17T19:20:38.979Z,18.32
2018-09-17T19:23:17.386Z,18.23
2018-09-17T19:25:50.886Z,18.12
2018-09-17T19:28:29.378Z,18.05
2018-09-17T19:31:02.779Z,18.00
2018-09-17T19:33:36.108Z,17.86
2018-09-17T19:36:09.848Z,17.82
2018-09-17T19:38:48.475Z,17.77
2018-09-17T19:41:22.308Z,17.61
2018-09-17T19:43:56.384Z,17.55
2018-09-17T19:46:29.694Z,17.49
2018-09-17T19:49:03.568Z,17.42
2018-09-17T19:51:42.251Z,17.35
2018-09-17T19:54:15.593Z,17.28
2018-09-17T19:56:48.934Z,17.24
2018-09-17T19:59:27.538Z,17.14
2018-09-17T20:02:00.885Z,17.09
2018-09-17T20:04:39.714Z,16.97
2018-09-17T20:07:13.030Z,16.90
2018-09-17T20:12:44.551Z,16.69
2018-09-17T20:15:17.873Z,16.63
2018-09-17T20:17:51.217Z,16.57
2018-09-17T20:20:24.598Z,16.54
2018-09-17T20:22:57.992Z,16.54
2018-09-17T20:25:31.406Z,16.51
2018-09-17T20:28:04.730Z,16.48
2018-09-17T20:30:38.083Z,16.44
2018-09-17T20:33:11.441Z,16.42
2018-09-17T20:35:44.818Z,16.37
2018-09-17T20:38:18.173Z,16.34
2018-09-17T20:40:51.550Z,16.31
2018-09-17T20:43:24.882Z,16.23
2018-09-17T20:45:58.229Z,16.19
2018-09-17T20:48:31.604Z,16.12
2018-09-17T20:51:04.927Z,16.09
2018-09-17T20:53:38.252Z,15.99
2018-09-17T20:56:11.642Z,15.90
2018-09-17T20:58:44.980Z,15.86
2018-09-17T21:01:18.437Z,15.82
2018-09-17T21:03:51.763Z,15.74
2018-09-17T21:06:25.177Z,15.72
2018-09-17T21:08:58.507Z,15.61
2018-09-17T21:11:31.891Z,15.54
2018-09-17T21:14:05.622Z,15.53
2018-09-17T21:16:39.362Z,15.50
2018-09-17T21:19:12.685Z,15.48
2018-09-17T21:21:46.072Z,15.42
2018-09-17T21:24:19.367Z,15.40
2018-09-17T21:26:52.745Z,15.40
2018-09-17T21:29:26.071Z,15.32
2018-09-17T21:31:59.426Z,15.27
2018-09-17T21:34:32.802Z,15.25
2018-09-17T21:37:06.300Z,15.23
2018-09-17T21:39:39.581Z,15.20
2018-09-17T21:42:12.946Z,15.16
2018-09-17T21:44:46.341Z,15.14
2018-09-17T21:47:19.761Z,15.11
2018-09-17T21:49:53.091Z,15.09
2018-09-17T21:52:26.440Z,15.07
2018-09-17T21:54:59.776Z,15.02
2018-09-17T21:57:33.114Z,14.92
2018-09-17T22:00:06.489Z,14.85
2018-09-17T22:02:39.843Z,14.82
2018-09-17T22:05:13.221Z,14.77
2018-09-17T22:07:46.602Z,14.71
2018-09-17T22:10:19.954Z,14.70
2018-09-17T22:12:53.297Z,14.69
2018-09-17T22:15:26.614Z,14.69
2018-09-17T22:17:59.981Z,14.67
2018-09-17T22:20:33.559Z,14.63
2018-09-17T22:23:06.953Z,14.59
2018-09-17T22:25:40.280Z,14.58
2018-09-17T22:28:13.657Z,14.56
2018-09-17T22:30:46.989Z,14.54
2018-09-17T22:33:20.401Z,14.50
2018-09-17T22:35:53.724Z,14.44
2018-09-17T22:38:27.084Z,14.41
2018-09-17T22:41:00.419Z,14.35
2018-09-17T22:43:33.798Z,14.28
2018-09-17T22:46:07.143Z,14.25
2018-09-17T22:48:40.506Z,14.24
2018-09-17T22:51:13.848Z,14.21
2018-09-17T22:53:47.196Z,14.20
2018-09-17T22:56:20.542Z,14.15
2018-09-17T22:58:53.885Z,14.05
2018-09-17T23:01:27.255Z,14.02
2018-09-17T23:04:00.593Z,13.99
2018-09-17T23:06:33.928Z,13.96
2018-09-17T23:09:08.921Z,13.89
2018-09-17T23:11:42.245Z,13.85
2018-09-17T23:14:15.577Z,13.79
2018-09-17T23:16:48.878Z,13.76
2018-09-17T23:19:22.738Z,13.71
2018-09-17T23:21:56.075Z,13.69
2018-09-17T23:24:29.401Z,13.67
2018-09-17T23:27:02.726Z,13.70
2018-09-17T23:29:36.045Z,13.67
2018-09-17T23:32:09.382Z,13.64
2018-09-17T23:34:42.787Z,13.60
2018-09-17T23:37:16.189Z,13.53
2018-09-17T23:39:49.513Z,13.46
2018-09-17T23:42:22.809Z,13.45
2018-09-17T23:44:56.129Z,13.39
2018-09-17T23:47:29.442Z,13.34
2018-09-17T23:50:02.763Z,13.35
2018-09-17T23:52:36.058Z,13.35
2018-09-17T23:55:09.431Z,13.32
2018-09-17T23:57:42.740Z,13.28
